createdAt,value
2018-03-22T00:00:54.850Z,7.50
2018-03-22T00:01:55.592Z,7.50
2018-03-22T00:02:56.323Z,8.10
2018-03-22T00:03:57.062Z,6.90
2018-03-22T00:04:57.768Z,7.20
2018-03-22T00:05:58.443Z,9.00
2018-03-22T00:07:59.391Z,7.50
2018-03-22T00:09:00.165Z,8.20
2018-03-22T00:10:00.884Z,8.60
2018-03-22T00:11:01.635Z,7.50
2018-03-22T00:12:02.409Z,7.30
2018-03-22T00:13:03.187Z,7.90
2018-03-22T00:14:03.940Z,8.30
2018-03-22T00:15:05.485Z,7.80
2018-03-22T00:16:06.293Z,7.40
2018-03-22T00:17:07.010Z,7.50
2018-03-22T00:18:07.733Z,7.30
2018-03-22T00:19:08.519Z,8.70
2018-03-22T00:20:09.248Z,8.80
2018-03-22T00:21:11.069Z,7.80
2018-03-22T00:23:12.103Z,7.80
2018-03-22T00:24:12.872Z,7.30
2018-03-22T00:25:13.601Z,6.90
2018-03-22T00:26:14.365Z,7.90
2018-03-22T00:27:15.164Z,7.30
2018-03-22T00:28:15.903Z,7.50
2018-03-22T00:29:16.629Z,7.30
2018-03-22T00:30:18.225Z,7.40
2018-03-22T00:31:18.990Z,8.50
2018-03-22T00:32:19.717Z,7.40
2018-03-22T00:33:20.456Z,7.90
2018-03-22T00:34:21.221Z,7.70
2018-03-22T00:35:22.120Z,9.00
2018-03-22T00:36:22.878Z,8.20
2018-03-22T00:37:24.622Z,7.90
2018-03-22T00:38:25.393Z,8.70
2018-03-22T00:39:26.169Z,8.10
2018-03-22T00:40:26.826Z,9.30
2018-03-22T00:41:27.515Z,8.50
2018-03-22T00:42:28.217Z,8.70
2018-03-22T00:43:28.902Z,7.80
2018-03-22T00:44:30.337Z,8.40
2018-03-22T00:45:31.789Z,8.40
2018-03-22T00:46:32.654Z,9.20
2018-03-22T00:47:33.378Z,7.30
2018-03-22T00:48:34.806Z,8.40
2018-03-22T00:49:36.353Z,7.70
2018-03-22T00:50:37.073Z,7.60
2018-03-22T00:51:37.879Z,8.20
2018-03-22T00:53:38.864Z,8.60
2018-03-22T00:54:39.687Z,7.70
2018-03-22T00:55:40.493Z,7.50
2018-03-22T00:56:41.222Z,7.60
2018-03-22T00:57:42.070Z,10.10
2018-03-22T00:58:42.897Z,8.50
2018-03-22T00:59:43.740Z,7.50
2018-03-22T01:00:45.582Z,8.10
2018-03-22T01:01:47.310Z,7.70
2018-03-22T01:02:48.033Z,7.70
2018-03-22T01:03:48.866Z,9.00
2018-03-22T01:04:49.560Z,7.40
2018-03-22T01:05:50.227Z,7.70
2018-03-22T01:06:50.923Z,6.80
2018-03-22T01:07:51.725Z,9.20
2018-03-22T01:09:52.675Z,9.20
2018-03-22T01:10:53.347Z,9.60
2018-03-22T01:11:54.201Z,8.60
2018-03-22T01:12:54.890Z,8.30
2018-03-22T01:13:55.702Z,8.90
2018-03-22T01:14:57.010Z,10.20
2018-03-22T01:15:57.796Z,9.10
2018-03-22T01:16:58.673Z,7.90
2018-03-22T01:17:59.498Z,8.70
2018-03-22T01:19:00.271Z,8.90
2018-03-22T01:19:34.710Z,9.20
2018-03-22T01:20:35.623Z,8.80
2018-03-22T01:21:36.495Z,9.70
2018-03-22T01:22:37.911Z,11.40
2018-03-22T01:23:39.374Z,9.80
2018-03-22T01:24:41.117Z,9.90
2018-03-22T01:25:41.964Z,9.60
2018-03-22T01:26:42.697Z,7.20
2018-03-22T01:27:43.463Z,9.10
2018-03-22T01:29:44.562Z,8.00
2018-03-22T01:30:45.457Z,8.00
2018-03-22T01:31:46.348Z,8.20
2018-03-22T01:32:47.043Z,10.40
2018-03-22T01:33:47.722Z,7.90
2018-03-22T01:34:48.421Z,9.80
2018-03-22T01:35:49.133Z,8.10
2018-03-22T01:36:49.836Z,8.50
2018-03-22T01:37:50.492Z,7.10
2018-03-22T01:38:51.158Z,7.90
2018-03-22T01:39:51.832Z,7.60
2018-03-22T01:40:52.517Z,7.70
2018-03-22T01:41:53.206Z,8.30
2018-03-22T01:42:54.014Z,8.80
2018-03-22T01:43:54.688Z,7.90
2018-03-22T01:44:55.522Z,8.50
2018-03-22T01:45:56.322Z,9.00
2018-03-22T01:46:57.116Z,8.00
2018-03-22T01:47:58.058Z,7.80
2018-03-22T01:48:58.820Z,7.80
2018-03-22T01:49:59.622Z,8.40
2018-03-22T01:51:00.369Z,7.90
2018-03-22T01:52:01.185Z,8.10
2018-03-22T01:53:01.997Z,9.50
2018-03-22T01:54:02.762Z,7.40
2018-03-22T01:55:03.507Z,8.50
2018-03-22T01:56:04.331Z,8.50
2018-03-22T01:57:05.067Z,7.90
2018-03-22T01:58:05.783Z,8.10
2018-03-22T01:59:06.462Z,10.00
2018-03-22T02:00:07.287Z,7.60
2018-03-22T02:01:08.006Z,9.50
2018-03-22T02:02:08.797Z,10.30
2018-03-22T02:03:09.675Z,8.00
2018-03-22T02:04:10.426Z,7.90
2018-03-22T02:05:11.156Z,7.60
2018-03-22T02:06:11.883Z,9.80
2018-03-22T06:22:36.029Z,0.00
2018-03-22T07:52:06.618Z,8.90
2018-03-22T07:53:12.461Z,7.00
2018-03-22T07:54:43.136Z,11.40
2018-03-22T07:56:11.840Z,7.00
2018-03-22T07:57:12.561Z,11.40
2018-03-22T07:58:13.288Z,7.40
2018-03-22T07:59:14.024Z,8.20
2018-03-22T08:00:15.662Z,6.60
2018-03-22T08:01:42.312Z,9.40
2018-03-22T08:03:12.471Z,12.10
2018-03-22T08:04:13.170Z,12.10
2018-03-22T08:05:13.848Z,9.30
2018-03-22T08:06:14.568Z,9.00
2018-03-22T08:07:15.293Z,8.10
2018-03-22T08:08:17.099Z,6.60
2018-03-22T08:13:19.694Z,5.90
2018-03-22T08:14:20.577Z,5.90
2018-03-22T08:15:24.711Z,7.10
2018-03-22T08:16:25.571Z,7.10
2018-03-22T08:17:26.306Z,7.70
2018-03-22T08:18:33.635Z,0.00
2018-03-22T08:59:43.242Z,3.30
2018-03-22T09:00:44.066Z,7.20
2018-03-22T09:01:47.285Z,8.90
2018-03-22T09:02:49.706Z,7.50
2018-03-22T09:03:53.006Z,7.00
2018-03-22T09:04:53.794Z,6.90
2018-03-22T09:05:55.213Z,6.50
2018-03-22T09:07:03.183Z,6.10
2018-03-22T09:08:04.098Z,6.30
2018-03-22T09:09:04.914Z,6.80
2018-03-22T09:10:05.955Z,7.50
2018-03-22T09:11:22.370Z,7.30
2018-03-22T09:12:26.436Z,7.30
2018-03-22T09:13:33.598Z,7.30
2018-03-22T09:14:34.639Z,6.50
2018-03-22T09:15:35.407Z,5.90
2018-03-22T09:16:36.341Z,8.40
2018-03-22T09:17:37.174Z,7.10
2018-03-22T09:18:46.314Z,6.50
2018-03-22T09:19:49.007Z,6.60
2018-03-22T09:20:49.838Z,7.80
2018-03-22T09:21:53.757Z,6.30
2018-03-22T09:23:04.544Z,6.30
2018-03-22T09:25:56.038Z,6.80
2018-03-22T09:27:03.060Z,6.80
2018-03-22T09:28:03.817Z,8.80
2018-03-22T09:30:52.266Z,10.80
2018-03-22T09:31:54.002Z,10.80
2018-03-22T09:33:02.740Z,8.80
2018-03-22T09:34:21.387Z,8.80
2018-03-22T09:35:33.602Z,7.40
2018-03-22T09:36:34.366Z,8.50
2018-03-22T09:37:35.239Z,9.20
2018-03-22T09:38:35.936Z,7.10
2018-03-22T09:40:36.496Z,7.70
2018-03-22T09:42:03.947Z,7.30
2018-03-22T09:43:04.962Z,6.60
2018-03-22T09:44:05.712Z,8.30
2018-03-22T09:45:06.435Z,6.90
2018-03-22T09:46:34.378Z,7.40
2018-03-22T09:47:32.697Z,7.40
2018-03-22T09:48:33.398Z,6.00
2018-03-22T09:49:34.130Z,6.20
2018-03-22T09:50:39.766Z,5.60
2018-03-22T09:52:44.444Z,8.10
2018-03-22T09:53:53.754Z,8.10
2018-03-22T09:55:34.229Z,7.20
2018-03-22T09:56:47.806Z,6.80
2018-03-22T09:58:02.892Z,8.60
2018-03-22T09:59:03.719Z,7.80
2018-03-22T10:00:05.434Z,6.70
2018-03-22T10:01:06.182Z,6.70
2018-03-22T10:02:07.986Z,6.70
2018-03-22T10:03:08.965Z,7.40
2018-03-22T10:04:32.394Z,7.70
2018-03-22T10:05:33.277Z,7.70
2018-03-22T10:07:36.217Z,7.40
2018-03-22T10:08:36.940Z,9.60
2018-03-22T10:10:01.970Z,6.10
2018-03-22T10:11:04.403Z,7.20
2018-03-22T10:12:05.639Z,9.30
2018-03-22T10:13:06.461Z,9.70
2018-03-22T10:14:26.054Z,9.90
2018-03-22T10:16:03.891Z,9.40
2018-03-22T10:17:04.621Z,9.30
2018-03-22T10:18:05.357Z,6.40
2018-03-22T10:20:25.398Z,7.60
2018-03-22T10:21:23.869Z,7.60
2018-03-22T10:22:28.490Z,7.90
2018-03-22T10:23:33.800Z,7.90
2018-03-22T10:24:34.642Z,10.00
2018-03-22T10:25:35.385Z,6.10
2018-03-22T10:26:36.114Z,7.20
2018-03-22T10:27:57.529Z,7.20
2018-03-22T10:29:01.644Z,7.20
2018-03-22T10:30:02.414Z,9.60
2018-03-22T10:31:04.329Z,7.90
2018-03-22T10:32:05.039Z,8.30
2018-03-22T10:33:06.018Z,8.10
2018-03-22T10:34:06.722Z,8.60
2018-03-22T10:35:07.445Z,9.10
2018-03-22T10:37:03.210Z,8.70
2018-03-22T10:38:03.979Z,8.70
2018-03-22T10:39:04.751Z,10.00
2018-03-22T10:40:05.438Z,9.70
2018-03-22T10:41:06.177Z,11.80
2018-03-22T10:42:08.766Z,10.30
2018-03-22T10:43:12.031Z,10.00
2018-03-22T10:44:29.378Z,10.50
2018-03-22T10:45:32.445Z,12.40
2018-03-22T10:46:33.973Z,13.90
2018-03-22T10:47:35.355Z,11.80
2018-03-22T10:48:36.018Z,11.50
2018-03-22T10:49:37.387Z,13.60
2018-03-22T10:50:40.148Z,13.30
2018-03-22T10:51:41.544Z,16.20
2018-03-22T10:52:48.487Z,11.90
2018-03-22T10:53:49.479Z,12.70
2018-03-22T10:54:50.345Z,12.60
2018-03-22T10:55:51.098Z,14.30
2018-03-22T10:57:03.327Z,14.70
2018-03-22T10:58:04.182Z,14.20
2018-03-22T10:59:04.894Z,14.40
2018-03-22T11:00:05.590Z,14.00
2018-03-22T11:01:06.266Z,16.40
2018-03-22T11:02:06.947Z,13.70
2018-03-22T11:03:09.358Z,14.30
2018-03-22T11:04:12.527Z,13.90
2018-03-22T11:05:14.187Z,14.30
2018-03-22T11:07:16.520Z,14.30
2018-03-22T11:08:20.829Z,14.70
2018-03-22T11:09:21.611Z,14.70
2018-03-22T11:10:22.454Z,14.00
2018-03-22T11:11:23.203Z,16.20
2018-03-22T11:12:25.412Z,16.00
2018-03-22T11:13:26.103Z,14.80
2018-03-22T11:14:26.949Z,17.30
2018-03-22T11:15:29.059Z,17.00
2018-03-22T11:16:29.990Z,16.00
2018-03-22T11:17:32.679Z,17.70
2018-03-22T11:18:33.522Z,17.50
2018-03-22T11:19:34.275Z,17.00
2018-03-22T11:20:35.106Z,17.40
2018-03-22T11:21:35.968Z,15.30
2018-03-22T11:22:36.830Z,15.90
2018-03-22T11:24:53.417Z,16.00
2018-03-22T11:25:56.838Z,17.00
2018-03-22T11:26:59.076Z,17.00
2018-03-22T11:28:01.416Z,16.60
2018-03-22T11:29:02.464Z,16.40
2018-03-22T11:30:06.011Z,16.70
2018-03-22T11:31:06.860Z,17.70
2018-03-22T11:32:08.273Z,17.40
2018-03-22T11:33:09.162Z,18.10
2018-03-22T11:34:10.518Z,18.70
2018-03-22T11:35:08.189Z,24.20
2018-03-22T11:47:06.725Z,9.50
2018-03-22T11:48:07.417Z,12.10
2018-03-22T11:49:11.075Z,11.50
2018-03-22T11:50:28.501Z,11.50
2018-03-22T11:51:32.459Z,11.10
2018-03-22T11:52:33.157Z,11.10
2018-03-22T11:53:33.922Z,12.60
2018-03-22T11:54:34.724Z,16.80
2018-03-22T11:55:35.453Z,13.50
2018-03-22T11:56:36.184Z,13.00
2018-03-22T11:57:37.913Z,12.60
2018-03-22T11:58:51.882Z,14.10
2018-03-22T11:59:52.704Z,14.40
2018-03-22T12:00:57.298Z,15.50
2018-03-22T12:02:01.298Z,16.00
2018-03-22T12:03:02.054Z,16.00
2018-03-22T12:04:03.189Z,16.70
2018-03-22T12:05:03.897Z,16.30
2018-03-22T12:06:04.615Z,17.10
2018-03-22T12:07:05.402Z,16.80
2018-03-22T12:08:06.130Z,17.60
2018-03-22T12:09:06.805Z,16.50
